Time;durP1;ratioP1;P1;durP2;ratioP2;P2;SDS_P1;SDS_P2;PMS_P1;PMS_P2;Temp;Humidity;BMP_temperature;BMP_pressure;BME280_temperature;BME280_humidity;BME280_pressure;Samples;Min_cycle;Max_cycle;Signal;HPM_P1;HPM_P2
2022/04/22 00:02:14;;;;;;;10.23;4.85;;;;;;;;;;6299107;22;20022;-49
2022/04/22 00:04:39;;;;;;;6.78;4.32;;;;;;;;;;6297425;22;20019;-48
2022/04/22 00:07:05;;;;;;;12.73;5.28;;;;;;;;;;6296352;22;20011;-50
2022/04/22 00:09:30;;;;;;;8.32;5.47;;;;;;;;;;6298567;22;20059;-53
2022/04/22 00:11:55;;;;;;;7.72;5.20;;;;;;;;;;6295085;22;20014;-52
2022/04/22 00:14:21;;;;;;;8.70;4.95;;;;;;;;;;6297774;22;20011;-52
2022/04/22 00:16:46;;;;;;;8.48;4.55;;;;;;;;;;6295587;22;20090;-51
2022/04/22 00:19:11;;;;;;;7.50;4.60;;;;;;;;;;6297949;22;20055;-50
2022/04/22 00:21:36;;;;;;;5.75;4.15;;;;;;;;;;6296739;22;20106;-53
2022/04/22 00:24:02;;;;;;;8.43;5.15;;;;;;;;;;6299793;22;20015;-52
2022/04/22 00:26:27;;;;;;;8.38;4.90;;;;;;;;;;6294433;22;20322;-49
2022/04/22 00:28:53;;;;;;;7.00;4.60;;;;;;;;;;6298641;22;20023;-52
2022/04/22 00:31:18;;;;;;;7.07;4.95;;;;;;;;;;6295591;22;20011;-51
2022/04/22 00:33:43;;;;;;;11.00;5.30;;;;;;;;;;6298262;22;20061;-49
2022/04/22 00:36:09;;;;;;;8.93;5.00;;;;;;;;;;6296843;22;20019;-52
2022/04/22 00:38:34;;;;;;;11.35;4.93;;;;;;;;;;6298312;22;20003;-49
2022/04/22 00:41:00;;;;;;;12.27;4.90;;;;;;;;;;6295729;22;20349;-51
2022/04/22 00:43:26;;;;;;;8.85;4.70;;;;;;;;;;6298078;22;20019;-52
2022/04/22 00:45:52;;;;;;;15.95;5.15;;;;;;;;;;6297313;22;20034;-50
2022/04/22 00:48:18;;;;;;;8.68;4.75;;;;;;;;;;6297941;22;20043;-52
2022/04/22 00:50:43;;;;;;;8.50;5.35;;;;;;;;;;6296331;22;20262;-48
2022/04/22 00:53:09;;;;;;;7.57;4.97;;;;;;;;;;6298711;22;20098;-51
2022/04/22 00:55:36;;;;;;;9.07;5.47;;;;;;;;;;6295805;22;20011;-53
2022/04/22 00:58:02;;;;;;;7.18;4.25;;;;;;;;;;6296944;22;20059;-49
2022/04/22 01:00:27;;;;;;;9.50;4.82;;;;;;;;;;6296033;22;20046;-53
2022/04/22 01:02:53;;;;;;;14.77;5.20;;;;;;;;;;6298385;22;20019;-49
2022/04/22 01:10:46;;;;;;;5.93;4.32;;;;;;;;;;6296241;22;20022;-48
2022/04/22 01:13:12;;;;;;;8.43;5.13;;;;;;;;;;6293516;22;20011;-52
2022/04/22 01:15:37;;;;;;;7.68;5.07;;;;;;;;;;6297829;22;20025;-50
2022/04/22 01:18:03;;;;;;;8.38;5.13;;;;;;;;;;6295221;22;20019;-49
2022/04/22 01:20:29;;;;;;;13.98;5.72;;;;;;;;;;6297311;22;20067;-51
2022/04/22 01:22:54;;;;;;;12.63;6.30;;;;;;;;;;6293710;22;20023;-48
2022/04/22 01:25:19;;;;;;;9.35;5.53;;;;;;;;;;6294365;22;20017;-53
2022/04/22 01:27:47;;;;;;;9.15;5.22;;;;;;;;;;6296964;22;20030;-52
2022/04/22 01:30:12;;;;;;;8.40;5.00;;;;;;;;;;6297129;22;20187;-52
2022/04/22 01:32:38;;;;;;;10.20;5.22;;;;;;;;;;6295801;22;20608;-49
2022/04/22 01:35:03;;;;;;;9.25;5.13;;;;;;;;;;6295657;22;20443;-51
2022/04/22 01:37:29;;;;;;;10.98;6.40;;;;;;;;;;6296149;22;20045;-51
2022/04/22 01:39:54;;;;;;;10.77;4.93;;;;;;;;;;6298057;22;20018;-50
2022/04/22 01:42:20;;;;;;;9.88;5.07;;;;;;;;;;6296205;22;20008;-49
2022/04/22 01:44:45;;;;;;;8.63;5.47;;;;;;;;;;6296374;22;20098;-49
2022/04/22 01:47:11;;;;;;;8.63;5.80;;;;;;;;;;6295523;22;20717;-51
2022/04/22 01:49:36;;;;;;;9.57;5.30;;;;;;;;;;6298136;22;20023;-52
2022/04/22 01:52:01;;;;;;;11.05;5.60;;;;;;;;;;6294951;22;20007;-51
2022/04/22 01:54:26;;;;;;;9.75;5.97;;;;;;;;;;6297865;22;20023;-50
2022/04/22 01:56:52;;;;;;;14.85;5.68;;;;;;;;;;6297054;22;20866;-50
2022/04/22 01:59:17;;;;;;;8.20;5.22;;;;;;;;;;6297441;22;20671;-53
2022/04/22 02:01:42;;;;;;;8.43;5.72;;;;;;;;;;6296992;22;20035;-54
2022/04/22 02:04:07;;;;;;;10.82;5.63;;;;;;;;;;6297887;22;20072;-51
2022/04/22 02:06:32;;;;;;;12.02;6.05;;;;;;;;;;6296249;22;20011;-51
2022/04/22 02:08:58;;;;;;;16.90;5.97;;;;;;;;;;6296020;22;20011;-51
2022/04/22 02:11:23;;;;;;;8.55;5.75;;;;;;;;;;6294869;22;20016;-52
2022/04/22 02:13:49;;;;;;;10.35;6.10;;;;;;;;;;6297451;22;20015;-54
2022/04/22 02:16:14;;;;;;;10.77;5.15;;;;;;;;;;6293110;22;20586;-48
2022/04/22 02:18:41;;;;;;;13.27;5.80;;;;;;;;;;6298124;22;20557;-53
2022/04/22 02:21:07;;;;;;;13.23;6.45;;;;;;;;;;6297011;22;20003;-49
2022/04/22 02:23:33;;;;;;;18.23;6.63;;;;;;;;;;6296551;22;20071;-51
2022/04/22 02:25:58;;;;;;;8.52;5.00;;;;;;;;;;6296267;22;20042;-51
2022/04/22 02:28:33;;;;;;;8.82;5.53;;;;;;;;;;6299286;22;20246;-54
2022/04/22 02:31:16;;;;;;;17.20;6.10;;;;;;;;;;6298679;22;20011;-51
2022/04/22 02:33:44;;;;;;;9.60;6.05;;;;;;;;;;6296270;22;20042;-50
2022/04/22 02:36:10;;;;;;;11.48;7.10;;;;;;;;;;6299106;22;20011;-51
2022/04/22 02:38:35;;;;;;;16.08;6.15;;;;;;;;;;6299026;22;20018;-52
2022/04/22 02:46:28;;;;;;;9.63;5.80;;;;;;;;;;6297598;22;20050;-50
2022/04/22 02:49:00;;;;;;;9.80;6.40;;;;;;;;;;6299783;22;20086;-51
2022/04/22 02:51:26;;;;;;;10.50;5.60;;;;;;;;;;6296945;22;20049;-50
2022/04/22 02:53:52;;;;;;;10.55;5.68;;;;;;;;;;6299036;22;20019;-50
2022/04/22 02:56:18;;;;;;;13.18;7.65;;;;;;;;;;6298462;22;20058;-51
2022/04/22 02:58:44;;;;;;;13.35;7.38;;;;;;;;;;6298734;22;20003;-49
2022/04/22 03:01:09;;;;;;;16.15;7.30;;;;;;;;;;6298127;22;20022;-51
2022/04/22 03:03:35;;;;;;;11.05;6.85;;;;;;;;;;6298147;22;20050;-50
2022/04/22 03:06:00;;;;;;;12.25;6.43;;;;;;;;;;6292318;22;20003;-52
2022/04/22 03:08:25;;;;;;;15.30;7.68;;;;;;;;;;6287216;22;20015;-50
2022/04/22 03:10:51;;;;;;;14.30;7.15;;;;;;;;;;6292457;22;20018;-51
2022/04/22 03:13:16;;;;;;;10.00;6.88;;;;;;;;;;6298811;22;20007;-52
2022/04/22 03:15:41;;;;;;;10.18;6.22;;;;;;;;;;6297804;22;20011;-51
2022/04/22 03:18:07;;;;;;;14.50;7.13;;;;;;;;;;6298332;22;20015;-48
2022/04/22 03:20:32;;;;;;;14.82;6.70;;;;;;;;;;6297852;22;20018;-49
2022/04/22 03:22:57;;;;;;;12.10;7.28;;;;;;;;;;6296715;22;20249;-51
2022/04/22 03:25:23;;;;;;;14.88;7.78;;;;;;;;;;6297244;22;20019;-50
2022/04/22 03:27:48;;;;;;;9.95;6.63;;;;;;;;;;6298643;22;20035;-49
2022/04/22 03:30:13;;;;;;;13.77;7.30;;;;;;;;;;6295119;22;20015;-51
2022/04/22 03:32:38;;;;;;;14.10;7.80;;;;;;;;;;6298735;22;20048;-48
2022/04/22 03:35:04;;;;;;;16.15;6.78;;;;;;;;;;6297440;22;20013;-51
2022/04/22 03:37:29;;;;;;;14.77;7.72;;;;;;;;;;6297451;22;20011;-52
2022/04/22 03:39:55;;;;;;;17.60;8.35;;;;;;;;;;6298238;22;20015;-49
2022/04/22 03:42:20;;;;;;;24.27;8.68;;;;;;;;;;6297219;22;20023;-48
2022/04/22 03:44:45;;;;;;;12.95;7.95;;;;;;;;;;6298712;22;20668;-53
2022/04/22 03:47:10;;;;;;;15.15;8.50;;;;;;;;;;6296279;22;20011;-52
2022/04/22 03:49:36;;;;;;;11.73;7.00;;;;;;;;;;6298147;22;20030;-48
2022/04/22 03:52:01;;;;;;;15.40;7.95;;;;;;;;;;6295554;22;20081;-49
2022/04/22 03:54:26;;;;;;;21.40;9.20;;;;;;;;;;6295815;22;20021;-50
2022/04/22 03:59:36;;;;;;;15.50;7.32;;;;;;;;;;6298085;22;20046;-52
2022/04/22 04:02:01;;;;;;;11.98;7.97;;;;;;;;;;6297204;22;20016;-52
2022/04/22 04:04:27;;;;;;;17.67;8.80;;;;;;;;;;6297073;22;20039;-51
2022/04/22 04:06:52;;;;;;;15.63;8.70;;;;;;;;;;6291965;22;20011;-53
2022/04/22 04:17:34;;;;;;;17.67;9.25;;;;;;;;;;6297410;22;20073;-51
2022/04/22 04:25:27;;;;;;;16.45;9.38;;;;;;;;;;6297707;22;20564;-52
2022/04/22 04:27:52;;;;;;;21.58;9.43;;;;;;;;;;6296284;22;20638;-52
2022/04/22 04:30:19;;;;;;;22.83;11.00;;;;;;;;;;6296959;22;20014;-52
2022/04/22 04:32:45;;;;;;;22.98;9.73;;;;;;;;;;6294829;22;20007;-51
2022/04/22 04:35:10;;;;;;;23.95;10.35;;;;;;;;;;6297257;22;20061;-48
2022/04/22 04:37:38;;;;;;;20.05;10.68;;;;;;;;;;6298071;22;20022;-51
2022/04/22 04:40:04;;;;;;;18.75;10.98;;;;;;;;;;6297703;22;20015;-50
2022/04/22 04:42:30;;;;;;;17.58;9.40;;;;;;;;;;6297410;22;20039;-52
2022/04/22 04:44:55;;;;;;;19.23;10.20;;;;;;;;;;6298032;22;20023;-52
2022/04/22 04:47:20;;;;;;;21.13;11.05;;;;;;;;;;6297334;22;20011;-51
2022/04/22 04:49:46;;;;;;;24.73;10.35;;;;;;;;;;6297287;22;20681;-51
2022/04/22 04:52:12;;;;;;;18.83;9.45;;;;;;;;;;6297173;22;20035;-52
2022/04/22 04:54:37;;;;;;;17.15;9.45;;;;;;;;;;6296528;22;20011;-49
2022/04/22 04:57:03;;;;;;;16.77;9.63;;;;;;;;;;6297784;22;20338;-51
2022/04/22 04:59:28;;;;;;;17.88;9.95;;;;;;;;;;6296691;22;20063;-49
2022/04/22 05:01:53;;;;;;;19.83;9.65;;;;;;;;;;6298808;22;20084;-48
2022/04/22 05:04:19;;;;;;;19.50;10.98;;;;;;;;;;6296626;22;20047;-52
2022/04/22 05:06:44;;;;;;;20.30;10.50;;;;;;;;;;6298476;22;20339;-50
2022/04/22 05:09:09;;;;;;;18.30;10.95;;;;;;;;;;6297098;22;20015;-53
2022/04/22 05:11:35;;;;;;;22.80;12.57;;;;;;;;;;6296353;22;20394;-49
2022/04/22 05:14:01;;;;;;;19.30;11.07;;;;;;;;;;6296773;22;20011;-48
2022/04/22 05:16:26;;;;;;;19.30;11.73;;;;;;;;;;6294381;22;20133;-50
2022/04/22 05:18:51;;;;;;;22.48;12.00;;;;;;;;;;6297716;22;20016;-49
2022/04/22 05:21:17;;;;;;;23.65;13.07;;;;;;;;;;6293799;22;20156;-53
2022/04/22 05:23:42;;;;;;;26.17;13.65;;;;;;;;;;6297120;22;20037;-52
2022/04/22 05:26:07;;;;;;;25.92;12.48;;;;;;;;;;6294167;22;20007;-51
2022/04/22 05:28:32;;;;;;;28.33;12.82;;;;;;;;;;6296738;22;20012;-51
2022/04/22 05:33:43;;;;;;;28.38;14.85;;;;;;;;;;6297369;22;20539;-51
2022/04/22 05:36:09;;;;;;;27.48;14.60;;;;;;;;;;6295780;22;20018;-53
2022/04/22 05:38:34;;;;;;;28.15;14.73;;;;;;;;;;6296258;22;20011;-53
2022/04/22 05:40:59;;;;;;;27.85;15.98;;;;;;;;;;6296044;22;20689;-53
2022/04/22 05:43:25;;;;;;;36.13;18.33;;;;;;;;;;6297587;22;20030;-52
2022/04/22 05:45:50;;;;;;;30.00;15.52;;;;;;;;;;6295813;22;20038;-50
2022/04/22 05:48:15;;;;;;;33.25;18.70;;;;;;;;;;6295835;22;20023;-52
2022/04/22 05:50:41;;;;;;;35.60;19.35;;;;;;;;;;6296282;22;20038;-50
2022/04/22 05:53:06;;;;;;;33.40;18.17;;;;;;;;;;6297594;22;20427;-53
2022/04/22 05:55:31;;;;;;;27.23;17.65;;;;;;;;;;6295862;22;20082;-48
2022/04/22 05:57:57;;;;;;;40.75;18.52;;;;;;;;;;6297156;22;20019;-51
2022/04/22 06:00:24;;;;;;;36.42;20.20;;;;;;;;;;6296788;22;20015;-49
2022/04/22 06:02:49;;;;;;;41.78;19.98;;;;;;;;;;6298538;22;20505;-51
2022/04/22 06:05:15;;;;;;;35.20;20.15;;;;;;;;;;6298940;22;20020;-54
2022/04/22 06:07:41;;;;;;;35.58;20.42;;;;;;;;;;6297599;22;20011;-51
2022/04/22 06:12:51;;;;;;;37.15;21.17;;;;;;;;;;6296244;22;20602;-53
2022/04/22 06:15:16;;;;;;;38.38;21.20;;;;;;;;;;6297923;22;20007;-54
2022/04/22 06:17:41;;;;;;;38.17;19.38;;;;;;;;;;6297973;22;20010;-53
2022/04/22 06:20:07;;;;;;;32.97;19.77;;;;;;;;;;6298544;22;20015;-53
2022/04/22 06:22:32;;;;;;;38.92;19.95;;;;;;;;;;6295924;22;20067;-52
2022/04/22 06:24:58;;;;;;;41.88;21.08;;;;;;;;;;6298733;22;20023;-50
2022/04/22 06:27:27;;;;;;;44.33;21.02;;;;;;;;;;6295591;22;20422;-49
2022/04/22 06:29:54;;;;;;;37.10;21.23;;;;;;;;;;6299668;22;20046;-50
2022/04/22 06:32:20;;;;;;;37.30;20.40;;;;;;;;;;6295095;22;20014;-51
2022/04/22 06:34:47;;;;;;;36.95;20.67;;;;;;;;;;6299374;22;20441;-51
2022/04/22 06:37:12;;;;;;;40.40;22.95;;;;;;;;;;6295836;22;20241;-52
2022/04/22 06:47:51;;;;;;;44.08;22.63;;;;;;;;;;6298800;22;20038;-53
2022/04/22 06:50:19;;;;;;;38.53;21.63;;;;;;;;;;6295234;22;20023;-49
2022/04/22 06:52:45;;;;;;;45.67;22.63;;;;;;;;;;6300288;22;20022;-52
2022/04/22 06:55:10;;;;;;;41.97;20.90;;;;;;;;;;6295449;22;20019;-50
2022/04/22 06:57:37;;;;;;;39.22;20.38;;;;;;;;;;6299013;22;20019;-53
2022/04/22 07:00:03;;;;;;;39.28;20.48;;;;;;;;;;6296931;22;20015;-48
2022/04/22 07:02:30;;;;;;;38.50;20.25;;;;;;;;;;6295073;22;20011;-53
2022/04/22 07:04:55;;;;;;;47.75;21.23;;;;;;;;;;6298975;22;20061;-49
2022/04/22 07:07:21;;;;;;;39.85;20.30;;;;;;;;;;6294546;22;20007;-52
2022/04/22 07:09:46;;;;;;;41.30;20.00;;;;;;;;;;6298941;22;20015;-53
2022/04/22 07:12:12;;;;;;;39.70;20.17;;;;;;;;;;6295121;22;20012;-52
2022/04/22 07:14:39;;;;;;;35.90;19.30;;;;;;;;;;6299085;22;20098;-49
2022/04/22 07:17:05;;;;;;;44.28;20.77;;;;;;;;;;6297236;22;20012;-49
2022/04/22 07:19:31;;;;;;;42.65;20.52;;;;;;;;;;6296924;22;20038;-52
2022/04/22 07:21:56;;;;;;;35.97;19.33;;;;;;;;;;6299015;22;20022;-50
2022/04/22 07:24:22;;;;;;;37.17;20.02;;;;;;;;;;6294508;22;20023;-48
2022/04/22 07:26:47;;;;;;;35.97;19.25;;;;;;;;;;6297242;22;20011;-52
2022/04/22 07:29:13;;;;;;;45.22;19.95;;;;;;;;;;6296309;22;20015;-51
2022/04/22 07:31:38;;;;;;;34.72;20.23;;;;;;;;;;6295723;22;20996;-52
2022/04/22 07:34:03;;;;;;;34.00;19.27;;;;;;;;;;6298974;22;20019;-54
2022/04/22 07:36:29;;;;;;;34.00;19.33;;;;;;;;;;6296024;22;20031;-50
2022/04/22 07:38:54;;;;;;;36.13;18.63;;;;;;;;;;6299290;22;20026;-51
2022/04/22 07:41:23;;;;;;;35.53;19.52;;;;;;;;;;6297720;22;20027;-53
2022/04/22 07:46:47;;;;;;;35.70;18.98;;;;;;;;;;6296529;22;20069;-54
2022/04/22 07:49:12;;;;;;;37.13;19.63;;;;;;;;;;6297705;22;20589;-53
2022/04/22 07:51:39;;;;;;;37.72;17.38;;;;;;;;;;6298554;22;20007;-53
2022/04/22 07:54:04;;;;;;;32.20;17.67;;;;;;;;;;6295770;22;20023;-51
2022/04/22 07:56:29;;;;;;;28.08;14.52;;;;;;;;;;6297430;22;20019;-52
2022/04/22 07:58:56;;;;;;;29.30;14.63;;;;;;;;;;6288723;22;20091;-52
2022/04/22 08:01:21;;;;;;;38.08;15.50;;;;;;;;;;6292878;22;20011;-53
2022/04/22 08:03:46;;;;;;;31.10;16.90;;;;;;;;;;6291363;22;20114;-53
2022/04/22 08:06:12;;;;;;;32.45;17.50;;;;;;;;;;6293044;22;20011;-49
2022/04/22 08:08:37;;;;;;;42.15;17.73;;;;;;;;;;6293010;22;20018;-53
2022/04/22 08:11:02;;;;;;;40.00;19.10;;;;;;;;;;6294532;22;20021;-53
2022/04/22 08:13:28;;;;;;;18.90;12.07;;;;;;;;;;6292215;22;20245;-53
2022/04/22 08:15:53;;;;;;;34.97;17.13;;;;;;;;;;6292904;22;20015;-54
2022/04/22 08:18:18;;;;;;;38.97;18.58;;;;;;;;;;6290142;22;20094;-53
2022/04/22 08:20:44;;;;;;;35.13;17.42;;;;;;;;;;6291778;22;20007;-53
2022/04/22 08:23:11;;;;;;;35.60;16.50;;;;;;;;;;6295435;22;20559;-51
2022/04/22 08:25:36;;;;;;;33.63;17.33;;;;;;;;;;6293604;22;20599;-53
2022/04/22 08:28:04;;;;;;;32.75;15.40;;;;;;;;;;6297684;22;20012;-52
2022/04/22 08:30:30;;;;;;;41.15;17.25;;;;;;;;;;6294838;22;20021;-51
2022/04/22 08:32:55;;;;;;;30.33;16.02;;;;;;;;;;6297650;22;20031;-52
2022/04/22 08:35:21;;;;;;;35.90;18.60;;;;;;;;;;6294360;22;20023;-52
2022/04/22 08:37:46;;;;;;;31.83;17.88;;;;;;;;;;6298304;22;20015;-52
2022/04/22 08:40:12;;;;;;;40.45;18.00;;;;;;;;;;6294747;22;20038;-52
2022/04/22 08:42:38;;;;;;;33.58;16.48;;;;;;;;;;6296677;22;20011;-51
2022/04/22 08:45:05;;;;;;;33.92;16.75;;;;;;;;;;6292156;22;20019;-51
2022/04/22 08:50:16;;;;;;;31.90;17.27;;;;;;;;;;6292832;22;20038;-52
2022/04/22 08:52:42;;;;;;;34.05;17.80;;;;;;;;;;6297037;22;20076;-51
2022/04/22 08:55:08;;;;;;;33.33;17.38;;;;;;;;;;6298517;22;20016;-52
2022/04/22 08:57:34;;;;;;;36.85;17.25;;;;;;;;;;6291467;22;20005;-50
2022/04/22 09:00:04;;;;;;;29.13;16.77;;;;;;;;;;6297318;22;20019;-52
2022/04/22 09:02:29;;;;;;;40.53;18.67;;;;;;;;;;6292732;22;20015;-53
2022/04/22 09:04:55;;;;;;;40.40;17.83;;;;;;;;;;6298190;22;20053;-53
2022/04/22 09:07:24;;;;;;;34.67;18.80;;;;;;;;;;6293862;22;20016;-49
2022/04/22 09:09:50;;;;;;;37.35;16.88;;;;;;;;;;6298125;22;20011;-54
2022/04/22 09:12:19;;;;;;;33.97;16.60;;;;;;;;;;6291483;22;20031;-51
2022/04/22 09:14:45;;;;;;;30.48;16.65;;;;;;;;;;6297750;22;20085;-52
2022/04/22 09:17:15;;;;;;;36.13;17.02;;;;;;;;;;6294038;22;20007;-52
2022/04/22 09:19:41;;;;;;;36.25;16.85;;;;;;;;;;6296188;22;20426;-49
2022/04/22 09:22:06;;;;;;;31.25;15.38;;;;;;;;;;6297305;22;20560;-52
2022/04/22 09:24:32;;;;;;;36.40;17.33;;;;;;;;;;6294103;22;20045;-53
2022/04/22 09:27:08;;;;;;;32.28;17.02;;;;;;;;;;6297125;22;20018;-50
2022/04/22 09:29:40;;;;;;;42.47;18.25;;;;;;;;;;6294485;22;20026;-51
2022/04/22 09:32:09;;;;;;;39.15;19.48;;;;;;;;;;6297555;22;20019;-49
2022/04/22 09:34:37;;;;;;;39.00;17.25;;;;;;;;;;6295487;22;20007;-51
2022/04/22 09:42:50;;;;;;;37.17;16.60;;;;;;;;;;6295087;22;20582;-52
2022/04/22 09:45:15;;;;;;;34.88;17.45;;;;;;;;;;6297014;22;20011;-53
2022/04/22 09:47:41;;;;;;;31.13;16.63;;;;;;;;;;6295775;22;20011;-51
2022/04/22 09:50:10;;;;;;;36.90;17.02;;;;;;;;;;6297507;22;20088;-53
2022/04/22 09:52:36;;;;;;;42.50;16.80;;;;;;;;;;6296659;22;20015;-48
2022/04/22 09:55:05;;;;;;;36.25;16.13;;;;;;;;;;6295574;22;20090;-54
2022/04/22 09:57:49;;;;;;;38.33;16.00;;;;;;;;;;6295970;22;20018;-52
2022/04/22 10:00:18;;;;;;;32.75;16.33;;;;;;;;;;6294661;22;20023;-51
2022/04/22 10:02:46;;;;;;;27.15;14.63;;;;;;;;;;6296609;22;20015;-54
2022/04/22 10:05:12;;;;;;;24.70;13.75;;;;;;;;;;6293653;22;20465;-53
2022/04/22 10:07:37;;;;;;;24.30;14.20;;;;;;;;;;6296863;22;20015;-55
2022/04/22 10:10:03;;;;;;;27.55;14.02;;;;;;;;;;6295253;22;20011;-53
2022/04/22 10:12:30;;;;;;;27.90;13.25;;;;;;;;;;6294709;22;20011;-51
2022/04/22 10:14:57;;;;;;;25.38;13.50;;;;;;;;;;6298352;22;20660;-55
2022/04/22 10:17:23;;;;;;;30.40;14.43;;;;;;;;;;6279941;22;20294;-52
2022/04/22 10:19:49;;;;;;;27.90;13.32;;;;;;;;;;6290920;22;20019;-53
2022/04/22 10:22:15;;;;;;;23.70;12.90;;;;;;;;;;6293355;22;20103;-50
2022/04/22 10:24:40;;;;;;;22.50;11.63;;;;;;;;;;6292787;22;20049;-52
2022/04/22 10:27:07;;;;;;;27.33;13.10;;;;;;;;;;6294650;22;20363;-53
2022/04/22 10:29:33;;;;;;;24.08;12.77;;;;;;;;;;6296981;22;20010;-55
2022/04/22 10:31:58;;;;;;;24.73;11.30;;;;;;;;;;6294092;22;20087;-52
2022/04/22 10:34:43;;;;;;;31.23;12.90;;;;;;;;;;6295094;22;20015;-55
2022/04/22 10:37:18;;;;;;;24.77;13.68;;;;;;;;;;6294890;22;20007;-53
2022/04/22 10:39:48;;;;;;;27.40;12.18;;;;;;;;;;6297128;22;20037;-54
2022/04/22 10:42:14;;;;;;;27.15;11.18;;;;;;;;;;6296491;22;20114;-52
2022/04/22 10:47:43;;;;;;;21.08;10.90;;;;;;;;;;6296821;22;20559;-53
2022/04/22 10:50:27;;;;;;;20.45;11.40;;;;;;;;;;6296856;22;20426;-55
2022/04/22 10:53:05;;;;;;;20.52;10.48;;;;;;;;;;6295200;22;20012;-53
2022/04/22 10:55:31;;;;;;;25.35;11.38;;;;;;;;;;6298815;22;20015;-52
2022/04/22 10:58:14;;;;;;;23.00;11.40;;;;;;;;;;6298213;22;20050;-55
2022/04/22 11:00:43;;;;;;;17.83;10.45;;;;;;;;;;6297371;22;20014;-52
2022/04/22 11:03:12;;;;;;;32.10;12.23;;;;;;;;;;6296767;22;20007;-53
2022/04/22 11:05:38;;;;;;;;;;;;;;;;;;6297985;22;20224;-54
2022/04/22 11:08:06;;;;;;;22.00;11.27;;;;;;;;;;6297760;22;19947;-55
2022/04/22 11:10:44;;;;;;;20.05;10.45;;;;;;;;;;6297800;22;20224;-54
2022/04/22 11:13:24;;;;;;;20.88;10.93;;;;;;;;;;6300305;22;20025;-51
2022/04/22 11:15:51;;;;;;;23.42;11.15;;;;;;;;;;6297916;22;20004;-55
2022/04/22 11:18:17;;;;;;;20.85;10.88;;;;;;;;;;6296129;22;20015;-53
2022/04/22 11:20:44;;;;;;;25.17;12.15;;;;;;;;;;6298949;22;20019;-50
2022/04/22 11:23:12;;;;;;;21.60;11.57;;;;;;;;;;6297031;22;20042;-54
2022/04/22 11:25:38;;;;;;;25.60;11.77;;;;;;;;;;6297814;22;20010;-52
2022/04/22 11:28:04;;;;;;;22.80;11.82;;;;;;;;;;6297097;22;20015;-54
2022/04/22 11:30:31;;;;;;;31.90;12.55;;;;;;;;;;6298061;22;20012;-53
2022/04/22 11:33:02;;;;;;;32.97;14.02;;;;;;;;;;6297062;22;20015;-52
2022/04/22 11:35:32;;;;;;;30.55;13.90;;;;;;;;;;6297874;22;20011;-53
2022/04/22 11:37:58;;;;;;;29.48;13.93;;;;;;;;;;6298211;22;20442;-55
2022/04/22 11:40:25;;;;;;;25.15;13.25;;;;;;;;;;6296837;22;20026;-55
2022/04/22 11:42:54;;;;;;;26.98;13.55;;;;;;;;;;6298527;22;20019;-53
2022/04/22 11:45:19;;;;;;;36.55;13.55;;;;;;;;;;6295535;22;20487;-54
2022/04/22 11:47:44;;;;;;;22.95;13.40;;;;;;;;;;6298727;22;20553;-51
2022/04/22 11:50:16;;;;;;;35.28;14.00;;;;;;;;;;6296419;22;20098;-55
2022/04/22 11:52:41;;;;;;;30.00;12.80;;;;;;;;;;6297266;22;20022;-54
2022/04/22 11:55:07;;;;;;;18.17;11.75;;;;;;;;;;6295506;22;20067;-55
2022/04/22 11:57:39;;;;;;;20.15;11.10;;;;;;;;;;6296807;22;20039;-53
2022/04/22 12:05:46;;;;;;;22.42;11.57;;;;;;;;;;6296577;22;20068;-55
2022/04/22 12:08:13;;;;;;;28.48;11.80;;;;;;;;;;6296034;22;20026;-51
2022/04/22 12:10:38;;;;;;;19.15;10.32;;;;;;;;;;6296019;22;20372;-51
2022/04/22 12:13:04;;;;;;;17.25;10.25;;;;;;;;;;6295840;22;20090;-56
2022/04/22 12:15:30;;;;;;;17.77;10.20;;;;;;;;;;6294988;22;20007;-51
2022/04/22 12:17:56;;;;;;;20.13;10.80;;;;;;;;;;6295886;22;20086;-50
2022/04/22 12:20:21;;;;;;;22.95;10.15;;;;;;;;;;6296381;22;20559;-51
2022/04/22 12:22:48;;;;;;;22.50;9.98;;;;;;;;;;6290905;22;20048;-55
2022/04/22 12:25:19;;;;;;;17.38;9.32;;;;;;;;;;6292467;22;20050;-53
2022/04/22 12:28:04;;;;;;;20.05;8.63;;;;;;;;;;6292558;22;20064;-51
2022/04/22 12:30:33;;;;;;;18.88;8.63;;;;;;;;;;6293197;22;20786;-55
2022/04/22 12:32:59;;;;;;;20.77;9.57;;;;;;;;;;6292550;22;20011;-55
2022/04/22 12:35:24;;;;;;;20.95;8.40;;;;;;;;;;6292314;22;20018;-51
2022/04/22 12:37:51;;;;;;;18.85;9.02;;;;;;;;;;6292384;22;20026;-53
2022/04/22 12:40:19;;;;;;;18.80;8.60;;;;;;;;;;6293650;22;20019;-53
2022/04/22 12:42:44;;;;;;;16.88;7.47;;;;;;;;;;6292211;22;20019;-50
2022/04/22 12:53:42;;;;;;;15.88;7.80;;;;;;;;;;6291691;22;20269;-52
2022/04/22 12:56:09;;;;;;;14.23;7.95;;;;;;;;;;6293065;22;20363;-55
2022/04/22 12:58:54;;;;;;;11.85;7.20;;;;;;;;;;6291958;22;20026;-52
2022/04/22 13:01:29;;;;;;;13.40;6.50;;;;;;;;;;6292303;22;20031;-53
2022/04/22 13:03:58;;;;;;;16.88;7.75;;;;;;;;;;6293298;22;20055;-54
2022/04/22 13:06:44;;;;;;;13.90;6.60;;;;;;;;;;6292273;22;20019;-52
2022/04/22 13:09:10;;;;;;;15.88;6.80;;;;;;;;;;6291985;22;20011;-51
2022/04/22 13:11:36;;;;;;;16.77;7.22;;;;;;;;;;6292572;22;20084;-51
2022/04/22 13:14:02;;;;;;;15.50;7.07;;;;;;;;;;6291173;22;20023;-52
2022/04/22 13:16:28;;;;;;;17.33;6.78;;;;;;;;;;6291283;22;20019;-51
2022/04/22 13:18:53;;;;;;;11.32;6.35;;;;;;;;;;6292031;22;20004;-53
2022/04/22 13:21:19;;;;;;;13.27;6.32;;;;;;;;;;6289188;22;20084;-54
2022/04/22 13:23:44;;;;;;;10.27;5.38;;;;;;;;;;6286949;22;20019;-54
2022/04/22 13:26:10;;;;;;;9.60;5.28;;;;;;;;;;6287995;22;20203;-50
2022/04/22 13:28:36;;;;;;;14.32;6.05;;;;;;;;;;6295192;22;20354;-50
2022/04/22 13:31:03;;;;;;;14.70;5.88;;;;;;;;;;6291377;22;20088;-55
2022/04/22 13:33:32;;;;;;;8.18;5.35;;;;;;;;;;6296015;22;20496;-50
2022/04/22 13:36:01;;;;;;;10.65;5.15;;;;;;;;;;6294602;22;20050;-53
2022/04/22 13:38:26;;;;;;;;;;;;;;;;;;6296679;22;20030;-53
2022/04/22 13:40:52;;;;;;;12.70;6.15;;;;;;;;;;6296303;22;19903;-53
2022/04/22 13:43:17;;;;;;;17.67;6.05;;;;;;;;;;6296524;22;20015;-50
2022/04/22 13:53:55;;;;;;;8.68;4.85;;;;;;;;;;6293598;22;20572;-50
2022/04/22 13:56:21;;;;;;;11.45;4.95;;;;;;;;;;6293648;22;20015;-47
2022/04/22 13:58:46;;;;;;;8.30;4.78;;;;;;;;;;6297566;22;20011;-50
2022/04/22 14:01:11;;;;;;;11.27;5.43;;;;;;;;;;6292997;22;20029;-49
2022/04/22 14:03:37;;;;;;;6.93;4.35;;;;;;;;;;6295374;22;20019;-52
2022/04/22 14:06:02;;;;;;;9.27;4.53;;;;;;;;;;6293366;22;20073;-53
2022/04/22 14:08:28;;;;;;;8.15;4.38;;;;;;;;;;6295995;22;20046;-51
2022/04/22 14:10:53;;;;;;;8.90;4.65;;;;;;;;;;6294972;22;20004;-55
2022/04/22 14:13:20;;;;;;;9.68;4.15;;;;;;;;;;6297698;22;20039;-55
2022/04/22 14:15:45;;;;;;;7.85;4.95;;;;;;;;;;6296286;22;20113;-53
2022/04/22 14:18:10;;;;;;;9.88;4.47;;;;;;;;;;6295416;22;20019;-55
2022/04/22 14:52:26;;;;;;;5.97;4.13;;;;;;;;;;6276339;22;20674;-55
2022/04/22 14:54:51;;;;;;;8.80;4.13;;;;;;;;;;6298231;22;20039;-57
2022/04/22 14:57:17;;;;;;;7.43;4.60;;;;;;;;;;6298016;22;20514;-51
2022/04/22 14:59:42;;;;;;;9.00;5.63;;;;;;;;;;6297882;22;20011;-51
2022/04/22 15:02:08;;;;;;;9.90;6.05;;;;;;;;;;6298910;22;20016;-52
2022/04/22 15:04:33;;;;;;;7.97;5.15;;;;;;;;;;6296208;22;20054;-52
2022/04/22 15:06:59;;;;;;;18.75;5.13;;;;;;;;;;6270869;22;20018;-53
2022/04/22 15:09:24;;;;;;;10.80;5.10;;;;;;;;;;6296351;22;20011;-52
2022/04/22 15:11:49;;;;;;;11.18;5.20;;;;;;;;;;6299222;22;20027;-53
2022/04/22 15:14:15;;;;;;;11.07;4.90;;;;;;;;;;6297288;22;20022;-50
2022/04/22 15:16:40;;;;;;;9.00;4.53;;;;;;;;;;6297741;22;20030;-52
2022/04/22 15:24:34;;;;;;;10.88;4.93;;;;;;;;;;6285606;22;20022;-52
2022/04/22 15:27:01;;;;;;;10.18;4.90;;;;;;;;;;6282294;22;20030;-52
2022/04/22 15:29:26;;;;;;;12.82;5.30;;;;;;;;;;6284363;22;20021;-51
2022/04/22 15:31:51;;;;;;;14.18;5.65;;;;;;;;;;6288203;22;20011;-50
2022/04/22 15:34:18;;;;;;;6.75;3.83;;;;;;;;;;6288851;22;20204;-51
2022/04/22 15:36:44;;;;;;;13.23;4.85;;;;;;;;;;6294287;22;20074;-53
2022/04/22 15:39:09;;;;;;;10.35;4.70;;;;;;;;;;6267703;22;20524;-48
2022/04/22 15:41:34;;;;;;;11.52;5.10;;;;;;;;;;6269898;22;20015;-53
2022/04/22 15:44:01;;;;;;;11.85;5.50;;;;;;;;;;6295851;22;20015;-51
2022/04/22 15:46:26;;;;;;;8.52;4.85;;;;;;;;;;6296606;22;20022;-52
2022/04/22 15:48:52;;;;;;;8.77;5.03;;;;;;;;;;6295791;22;20019;-49
2022/04/22 15:51:18;;;;;;;15.05;4.90;;;;;;;;;;6297922;22;20007;-50
2022/04/22 15:53:43;;;;;;;10.15;4.45;;;;;;;;;;6297197;22;20100;-50
2022/04/22 15:56:11;;;;;;;9.63;4.90;;;;;;;;;;6299363;22;20150;-53
2022/04/22 15:58:37;;;;;;;10.02;5.45;;;;;;;;;;6297255;22;20011;-53
2022/04/22 16:01:02;;;;;;;12.57;4.82;;;;;;;;;;6299764;22;20015;-49
2022/04/22 16:03:27;;;;;;;12.02;5.05;;;;;;;;;;6293117;22;20022;-52
2022/04/22 16:05:53;;;;;;;9.32;4.50;;;;;;;;;;6298284;22;20059;-52
2022/04/22 16:08:19;;;;;;;11.23;5.43;;;;;;;;;;6294864;22;20097;-53
2022/04/22 16:10:44;;;;;;;8.48;4.38;;;;;;;;;;6298039;22;20011;-53
2022/04/22 16:15:54;;;;;;;8.82;4.55;;;;;;;;;;6297023;22;20370;-53
2022/04/22 16:18:22;;;;;;;10.80;4.30;;;;;;;;;;6296449;22;20158;-50
2022/04/22 16:20:47;;;;;;;8.90;4.97;;;;;;;;;;6297802;22;20042;-52